sensor_id;sensor_type;location;lat;lon;timestamp;P1;durP1;ratioP1;P2;durP2;ratioP2
3417;SDS011;68007;51.312;12.372;2024-03-23T00:55:17;23.90;;;17.37;;
3417;SDS011;68007;51.312;12.372;2024-03-23T00:57:45;24.57;;;17.37;;
3417;SDS011;68007;51.312;12.372;2024-03-23T01:00:12;18.90;;;15.20;;
3417;SDS011;68007;51.312;12.372;2024-03-23T01:02:40;20.80;;;15.97;;
3417;SDS011;68007;51.312;12.372;2024-03-23T01:05:06;22.30;;;16.87;;
3417;SDS011;68007;51.312;12.372;2024-03-23T01:07:34;21.73;;;17.07;;
3417;SDS011;68007;51.312;12.372;2024-03-23T01:10:02;23.30;;;16.40;;
3417;SDS011;68007;51.312;12.372;2024-03-23T01:12:30;23.77;;;16.10;;
3417;SDS011;68007;51.312;12.372;2024-03-23T01:14:57;24.20;;;15.67;;
3417;SDS011;68007;51.312;12.372;2024-03-23T01:17:24;20.23;;;16.10;;
3417;SDS011;68007;51.312;12.372;2024-03-23T01:19:51;23.07;;;16.70;;
3417;SDS011;68007;51.312;12.372;2024-03-23T01:22:18;19.57;;;15.37;;
3417;SDS011;68007;51.312;12.372;2024-03-23T01:24:45;21.27;;;16.53;;
3417;SDS011;68007;51.312;12.372;2024-03-23T01:27:14;21.17;;;16.83;;
3417;SDS011;68007;51.312;12.372;2024-03-23T01:29:40;23.13;;;14.60;;
3417;SDS011;68007;51.312;12.372;2024-03-23T01:32:08;17.63;;;13.70;;
3417;SDS011;68007;51.312;12.372;2024-03-23T01:34:34;19.30;;;14.13;;
3417;SDS011;68007;51.312;12.372;2024-03-23T01:37:02;15.70;;;12.13;;
3417;SDS011;68007;51.312;12.372;2024-03-23T01:39:28;16.33;;;12.90;;
3417;SDS011;68007;51.312;12.372;2024-03-23T01:41:56;19.07;;;12.73;;
3417;SDS011;68007;51.312;12.372;2024-03-23T01:44:24;16.83;;;10.97;;
3417;SDS011;68007;51.312;12.372;2024-03-23T01:46:52;13.27;;;10.53;;
3417;SDS011;68007;51.312;12.372;2024-03-23T01:49:18;14.10;;;9.60;;
3417;SDS011;68007;51.312;12.372;2024-03-23T01:51:46;12.87;;;9.10;;
3417;SDS011;68007;51.312;12.372;2024-03-23T01:54:13;10.13;;;7.87;;
3417;SDS011;68007;51.312;12.372;2024-03-23T01:56:40;12.57;;;8.93;;
3417;SDS011;68007;51.312;12.372;2024-03-23T01:59:07;12.50;;;7.80;;
3417;SDS011;68007;51.312;12.372;2024-03-23T02:01:36;13.73;;;8.07;;
3417;SDS011;68007;51.312;12.372;2024-03-23T02:04:03;13.80;;;8.23;;
3417;SDS011;68007;51.312;12.372;2024-03-23T02:06:31;16.40;;;7.97;;
3417;SDS011;68007;51.312;12.372;2024-03-23T02:08:57;11.80;;;9.37;;
3417;SDS011;68007;51.312;12.372;2024-03-23T02:11:25;8.83;;;7.10;;
3417;SDS011;68007;51.312;12.372;2024-03-23T02:13:51;15.07;;;9.37;;
3417;SDS011;68007;51.312;12.372;2024-03-23T02:16:19;14.40;;;10.17;;
3417;SDS011;68007;51.312;12.372;2024-03-23T02:18:47;15.13;;;9.30;;
3417;SDS011;68007;51.312;12.372;2024-03-23T02:21:15;16.40;;;11.07;;
3417;SDS011;68007;51.312;12.372;2024-03-23T02:23:43;20.93;;;11.77;;
3417;SDS011;68007;51.312;12.372;2024-03-23T02:26:10;22.60;;;10.87;;
3417;SDS011;68007;51.312;12.372;2024-03-23T02:28:37;15.80;;;10.20;;
3417;SDS011;68007;51.312;12.372;2024-03-23T02:31:04;17.00;;;11.37;;
3417;SDS011;68007;51.312;12.372;2024-03-23T02:33:31;15.60;;;9.57;;
3417;SDS011;68007;51.312;12.372;2024-03-23T02:36:00;16.60;;;8.93;;
3417;SDS011;68007;51.312;12.372;2024-03-23T02:38:26;12.53;;;7.97;;
3417;SDS011;68007;51.312;12.372;2024-03-23T02:41:00;13.60;;;7.80;;
3417;SDS011;68007;51.312;12.372;2024-03-23T02:43:28;16.47;;;9.40;;
3417;SDS011;68007;51.312;12.372;2024-03-23T02:45:55;15.67;;;9.23;;
3417;SDS011;68007;51.312;12.372;2024-03-23T02:48:22;12.47;;;8.17;;
3417;SDS011;68007;51.312;12.372;2024-03-23T02:50:50;16.00;;;8.53;;
3417;SDS011;68007;51.312;12.372;2024-03-23T02:53:16;14.07;;;7.80;;
3417;SDS011;68007;51.312;12.372;2024-03-23T02:55:44;16.97;;;9.30;;
3417;SDS011;68007;51.312;12.372;2024-03-23T02:58:12;16.87;;;8.33;;
3417;SDS011;68007;51.312;12.372;2024-03-23T03:00:39;18.57;;;8.57;;
3417;SDS011;68007;51.312;12.372;2024-03-23T03:03:06;14.07;;;7.90;;
3417;SDS011;68007;51.312;12.372;2024-03-23T03:05:34;12.13;;;8.20;;
3417;SDS011;68007;51.312;12.372;2024-03-23T03:08:01;14.87;;;7.60;;
3417;SDS011;68007;51.312;12.372;2024-03-23T03:10:28;11.73;;;6.97;;
3417;SDS011;68007;51.312;12.372;2024-03-23T03:12:56;16.60;;;8.70;;
3417;SDS011;68007;51.312;12.372;2024-03-23T03:15:25;13.10;;;7.13;;
3417;SDS011;68007;51.312;12.372;2024-03-23T03:17:51;11.70;;;6.37;;
3417;SDS011;68007;51.312;12.372;2024-03-23T03:20:19;13.30;;;6.67;;
3417;SDS011;68007;51.312;12.372;2024-03-23T03:22:47;13.50;;;7.17;;
3417;SDS011;68007;51.312;12.372;2024-03-23T03:25:15;9.17;;;6.00;;
3417;SDS011;68007;51.312;12.372;2024-03-23T03:27:41;12.53;;;6.80;;
3417;SDS011;68007;51.312;12.372;2024-03-23T03:30:09;10.13;;;6.90;;
3417;SDS011;68007;51.312;12.372;2024-03-23T03:32:38;9.73;;;6.00;;
3417;SDS011;68007;51.312;12.372;2024-03-23T03:35:05;9.87;;;6.37;;
3417;SDS011;68007;51.312;12.372;2024-03-23T03:37:32;10.30;;;5.70;;
3417;SDS011;68007;51.312;12.372;2024-03-23T03:40:00;9.73;;;5.60;;
3417;SDS011;68007;51.312;12.372;2024-03-23T03:42:26;8.47;;;5.37;;
3417;SDS011;68007;51.312;12.372;2024-03-23T03:44:54;9.63;;;4.47;;
3417;SDS011;68007;51.312;12.372;2024-03-23T03:47:20;11.93;;;5.27;;
3417;SDS011;68007;51.312;12.372;2024-03-23T03:49:49;11.00;;;5.23;;
3417;SDS011;68007;51.312;12.372;2024-03-23T03:52:16;8.70;;;5.07;;
3417;SDS011;68007;51.312;12.372;2024-03-23T03:54:43;10.37;;;5.83;;
3417;SDS011;68007;51.312;12.372;2024-03-23T03:57:10;10.67;;;5.10;;
3417;SDS011;68007;51.312;12.372;2024-03-23T03:59:37;7.93;;;4.97;;
3417;SDS011;68007;51.312;12.372;2024-03-23T04:02:04;8.20;;;4.80;;
3417;SDS011;68007;51.312;12.372;2024-03-23T04:04:31;6.40;;;4.63;;
3417;SDS011;68007;51.312;12.372;2024-03-23T04:06:59;8.70;;;4.70;;
3417;SDS011;68007;51.312;12.372;2024-03-23T04:09:27;8.67;;;4.53;;
3417;SDS011;68007;51.312;12.372;2024-03-23T04:11:55;12.37;;;4.40;;
3417;SDS011;68007;51.312;12.372;2024-03-23T04:14:22;9.40;;;4.10;;
3417;SDS011;68007;51.312;12.372;2024-03-23T04:16:48;5.50;;;3.93;;
3417;SDS011;68007;51.312;12.372;2024-03-23T04:19:16;7.60;;;4.20;;
3417;SDS011;68007;51.312;12.372;2024-03-23T04:21:43;6.70;;;3.00;;
3417;SDS011;68007;51.312;12.372;2024-03-23T04:24:12;9.83;;;3.97;;
3417;SDS011;68007;51.312;12.372;2024-03-23T04:26:41;6.63;;;3.80;;
3417;SDS011;68007;51.312;12.372;2024-03-23T04:29:09;8.43;;;3.73;;
3417;SDS011;68007;51.312;12.372;2024-03-23T04:31:35;6.30;;;3.70;;
3417;SDS011;68007;51.312;12.372;2024-03-23T04:34:03;5.37;;;3.00;;
3417;SDS011;68007;51.312;12.372;2024-03-23T04:36:30;9.17;;;3.57;;
3417;SDS011;68007;51.312;12.372;2024-03-23T04:38:58;7.83;;;3.90;;
3417;SDS011;68007;51.312;12.372;2024-03-23T04:41:28;7.13;;;3.50;;
3417;SDS011;68007;51.312;12.372;2024-03-23T04:43:55;6.90;;;3.53;;
3417;SDS011;68007;51.312;12.372;2024-03-23T04:46:23;7.23;;;3.50;;
3417;SDS011;68007;51.312;12.372;2024-03-23T04:48:50;8.83;;;3.73;;
3417;SDS011;68007;51.312;12.372;2024-03-23T04:51:21;7.10;;;3.50;;
3417;SDS011;68007;51.312;12.372;2024-03-23T04:53:48;4.80;;;3.47;;
3417;SDS011;68007;51.312;12.372;2024-03-23T04:56:16;7.70;;;3.53;;
3417;SDS011;68007;51.312;12.372;2024-03-23T04:58:45;9.20;;;4.23;;
3417;SDS011;68007;51.312;12.372;2024-03-23T05:01:12;8.93;;;3.70;;
3417;SDS011;68007;51.312;12.372;2024-03-23T05:03:40;6.53;;;3.60;;
3417;SDS011;68007;51.312;12.372;2024-03-23T05:06:07;6.33;;;4.00;;
3417;SDS011;68007;51.312;12.372;2024-03-23T05:08:34;8.00;;;4.00;;
3417;SDS011;68007;51.312;12.372;2024-03-23T05:11:01;11.03;;;4.20;;
3417;SDS011;68007;51.312;12.372;2024-03-23T05:13:31;7.93;;;3.40;;
3417;SDS011;68007;51.312;12.372;2024-03-23T05:15:59;7.50;;;4.33;;
3417;SDS011;68007;51.312;12.372;2024-03-23T05:18:26;9.20;;;3.80;;
3417;SDS011;68007;51.312;12.372;2024-03-23T05:20:55;6.37;;;3.50;;
3417;SDS011;68007;51.312;12.372;2024-03-23T05:23:24;7.80;;;4.30;;
3417;SDS011;68007;51.312;12.372;2024-03-23T05:25:51;6.87;;;4.10;;
3417;SDS011;68007;51.312;12.372;2024-03-23T05:28:19;6.70;;;3.70;;
3417;SDS011;68007;51.312;12.372;2024-03-23T05:30:49;9.13;;;4.30;;
3417;SDS011;68007;51.312;12.372;2024-03-23T05:33:19;8.97;;;4.03;;
3417;SDS011;68007;51.312;12.372;2024-03-23T05:35:46;8.23;;;3.97;;
3417;SDS011;68007;51.312;12.372;2024-03-23T05:38:14;6.47;;;4.27;;
3417;SDS011;68007;51.312;12.372;2024-03-23T05:40:40;8.90;;;4.27;;
3417;SDS011;68007;51.312;12.372;2024-03-23T05:43:08;7.87;;;3.70;;
3417;SDS011;68007;51.312;12.372;2024-03-23T05:45:35;6.80;;;3.80;;
3417;SDS011;68007;51.312;12.372;2024-03-23T05:48:02;9.93;;;4.37;;
3417;SDS011;68007;51.312;12.372;2024-03-23T05:50:30;11.40;;;3.80;;
3417;SDS011;68007;51.312;12.372;2024-03-23T05:52:58;9.00;;;5.20;;
3417;SDS011;68007;51.312;12.372;2024-03-23T05:55:24;8.70;;;3.80;;
3417;SDS011;68007;51.312;12.372;2024-03-23T05:57:53;7.57;;;3.97;;
3417;SDS011;68007;51.312;12.372;2024-03-23T06:00:19;11.10;;;3.80;;
3417;SDS011;68007;51.312;12.372;2024-03-23T06:02:47;7.87;;;4.13;;
3417;SDS011;68007;51.312;12.372;2024-03-23T06:05:13;9.23;;;4.40;;
3417;SDS011;68007;51.312;12.372;2024-03-23T06:07:42;6.10;;;3.10;;
3417;SDS011;68007;51.312;12.372;2024-03-23T06:10:09;6.37;;;4.20;;
3417;SDS011;68007;51.312;12.372;2024-03-23T06:12:36;5.70;;;3.90;;
3417;SDS011;68007;51.312;12.372;2024-03-23T06:15:03;9.47;;;4.23;;
3417;SDS011;68007;51.312;12.372;2024-03-23T06:17:33;7.17;;;3.87;;
3417;SDS011;68007;51.312;12.372;2024-03-23T06:19:59;9.33;;;4.60;;
3417;SDS011;68007;51.312;12.372;2024-03-23T06:22:27;10.97;;;4.80;;
3417;SDS011;68007;51.312;12.372;2024-03-23T06:24:55;9.07;;;4.13;;
3417;SDS011;68007;51.312;12.372;2024-03-23T06:27:23;6.63;;;4.00;;
3417;SDS011;68007;51.312;12.372;2024-03-23T06:29:49;11.27;;;4.27;;
3417;SDS011;68007;51.312;12.372;2024-03-23T06:32:17;6.03;;;4.10;;
3417;SDS011;68007;51.312;12.372;2024-03-23T06:34:43;7.90;;;4.67;;
3417;SDS011;68007;51.312;12.372;2024-03-23T06:37:11;9.23;;;5.20;;
3417;SDS011;68007;51.312;12.372;2024-03-23T06:39:38;7.97;;;5.27;;
3417;SDS011;68007;51.312;12.372;2024-03-23T06:42:07;10.73;;;5.07;;
3417;SDS011;68007;51.312;12.372;2024-03-23T06:44:34;8.60;;;3.90;;
3417;SDS011;68007;51.312;12.372;2024-03-23T06:47:01;7.87;;;4.40;;
3417;SDS011;68007;51.312;12.372;2024-03-23T06:49:28;10.03;;;4.70;;
3417;SDS011;68007;51.312;12.372;2024-03-23T06:51:56;7.97;;;4.30;;
3417;SDS011;68007;51.312;12.372;2024-03-23T06:54:23;6.50;;;4.73;;
3417;SDS011;68007;51.312;12.372;2024-03-23T06:56:51;7.50;;;4.40;;
3417;SDS011;68007;51.312;12.372;2024-03-23T06:59:19;7.17;;;4.80;;
3417;SDS011;68007;51.312;12.372;2024-03-23T07:01:47;5.43;;;4.10;;
3417;SDS011;68007;51.312;12.372;2024-03-23T07:04:13;9.30;;;5.00;;
3417;SDS011;68007;51.312;12.372;2024-03-23T07:06:44;8.80;;;4.53;;
3417;SDS011;68007;51.312;12.372;2024-03-23T07:09:11;10.23;;;5.30;;
3417;SDS011;68007;51.312;12.372;2024-03-23T07:11:38;12.43;;;5.67;;
3417;SDS011;68007;51.312;12.372;2024-03-23T07:14:05;10.20;;;4.80;;
3417;SDS011;68007;51.312;12.372;2024-03-23T07:16:34;11.63;;;5.10;;
3417;SDS011;68007;51.312;12.372;2024-03-23T07:19:01;8.20;;;4.87;;
3417;SDS011;68007;51.312;12.372;2024-03-23T07:21:28;8.23;;;4.67;;
3417;SDS011;68007;51.312;12.372;2024-03-23T07:23:54;12.03;;;5.07;;
3417;SDS011;68007;51.312;12.372;2024-03-23T07:26:22;10.17;;;5.43;;
3417;SDS011;68007;51.312;12.372;2024-03-23T07:28:49;9.70;;;5.00;;
3417;SDS011;68007;51.312;12.372;2024-03-23T07:31:16;11.73;;;5.30;;
3417;SDS011;68007;51.312;12.372;2024-03-23T07:33:45;10.23;;;4.67;;
3417;SDS011;68007;51.312;12.372;2024-03-23T07:36:13;8.60;;;5.07;;
3417;SDS011;68007;51.312;12.372;2024-03-23T07:38:41;7.43;;;3.90;;
3417;SDS011;68007;51.312;12.372;2024-03-23T07:41:10;7.40;;;4.00;;
3417;SDS011;68007;51.312;12.372;2024-03-23T07:43:38;5.77;;;3.13;;
3417;SDS011;68007;51.312;12.372;2024-03-23T07:46:06;3.00;;;2.17;;
3417;SDS011;68007;51.312;12.372;2024-03-23T07:48:32;2.67;;;1.53;;
3417;SDS011;68007;51.312;12.372;2024-03-23T07:51:02;5.87;;;2.83;;
3417;SDS011;68007;51.312;12.372;2024-03-23T07:53:30;4.40;;;2.90;;
3417;SDS011;68007;51.312;12.372;2024-03-23T07:55:58;9.53;;;2.40;;
3417;SDS011;68007;51.312;12.372;2024-03-23T07:58:26;3.63;;;1.80;;
3417;SDS011;68007;51.312;12.372;2024-03-23T08:00:54;4.60;;;1.60;;
3417;SDS011;68007;51.312;12.372;2024-03-23T08:03:21;1.93;;;1.20;;
3417;SDS011;68007;51.312;12.372;2024-03-23T08:05:49;4.50;;;1.57;;
3417;SDS011;68007;51.312;12.372;2024-03-23T08:08:16;6.43;;;1.90;;
3417;SDS011;68007;51.312;12.372;2024-03-23T08:10:47;2.87;;;1.30;;
3417;SDS011;68007;51.312;12.372;2024-03-23T08:13:14;3.60;;;1.50;;
3417;SDS011;68007;51.312;12.372;2024-03-23T08:15:42;2.80;;;1.40;;
3417;SDS011;68007;51.312;12.372;2024-03-23T08:18:09;3.47;;;1.40;;
3417;SDS011;68007;51.312;12.372;2024-03-23T08:20:37;1.73;;;1.17;;
3417;SDS011;68007;51.312;12.372;2024-03-23T08:23:04;3.80;;;1.60;;
3417;SDS011;68007;51.312;12.372;2024-03-23T08:25:34;4.27;;;1.60;;
3417;SDS011;68007;51.312;12.372;2024-03-23T08:28:01;2.13;;;1.20;;
3417;SDS011;68007;51.312;12.372;2024-03-23T08:30:28;3.20;;;1.43;;
3417;SDS011;68007;51.312;12.372;2024-03-23T08:32:55;4.53;;;1.40;;
3417;SDS011;68007;51.312;12.372;2024-03-23T08:35:22;1.60;;;1.00;;
3417;SDS011;68007;51.312;12.372;2024-03-23T08:37:49;1.83;;;0.90;;
3417;SDS011;68007;51.312;12.372;2024-03-23T08:40:16;4.60;;;1.37;;
3417;SDS011;68007;51.312;12.372;2024-03-23T08:42:44;2.60;;;1.23;;
3417;SDS011;68007;51.312;12.372;2024-03-23T08:45:12;2.17;;;1.30;;
3417;SDS011;68007;51.312;12.372;2024-03-23T08:47:38;2.23;;;1.27;;
3417;SDS011;68007;51.312;12.372;2024-03-23T08:50:06;3.60;;;1.47;;
3417;SDS011;68007;51.312;12.372;2024-03-23T08:52:33;3.20;;;1.33;;
3417;SDS011;68007;51.312;12.372;2024-03-23T08:55:01;3.40;;;1.10;;
3417;SDS011;68007;51.312;12.372;2024-03-23T08:57:27;4.17;;;1.20;;
3417;SDS011;68007;51.312;12.372;2024-03-23T08:59:56;3.47;;;1.33;;
3417;SDS011;68007;51.312;12.372;2024-03-23T09:02:23;4.40;;;1.27;;
3417;SDS011;68007;51.312;12.372;2024-03-23T09:04:50;7.40;;;1.30;;
3417;SDS011;68007;51.312;12.372;2024-03-23T09:07:17;2.53;;;1.30;;
3417;SDS011;68007;51.312;12.372;2024-03-23T09:09:44;2.70;;;1.40;;
3417;SDS011;68007;51.312;12.372;2024-03-23T09:12:11;2.20;;;1.07;;
3417;SDS011;68007;51.312;12.372;2024-03-23T09:14:38;2.70;;;1.07;;
3417;SDS011;68007;51.312;12.372;2024-03-23T09:17:06;2.17;;;1.00;;
3417;SDS011;68007;51.312;12.372;2024-03-23T09:19:35;1.80;;;1.33;;
3417;SDS011;68007;51.312;12.372;2024-03-23T09:22:02;3.40;;;1.20;;
3417;SDS011;68007;51.312;12.372;2024-03-23T09:24:29;3.40;;;1.30;;
3417;SDS011;68007;51.312;12.372;2024-03-23T09:26:57;3.50;;;1.40;;
3417;SDS011;68007;51.312;12.372;2024-03-23T09:29:25;2.47;;;1.13;;
3417;SDS011;68007;51.312;12.372;2024-03-23T09:31:51;1.50;;;1.10;;
3417;SDS011;68007;51.312;12.372;2024-03-23T09:34:20;1.93;;;1.20;;
3417;SDS011;68007;51.312;12.372;2024-03-23T09:36:47;1.20;;;1.00;;
3417;SDS011;68007;51.312;12.372;2024-03-23T09:39:17;1.53;;;1.00;;
3417;SDS011;68007;51.312;12.372;2024-03-23T09:41:43;4.03;;;1.50;;
3417;SDS011;68007;51.312;12.372;2024-03-23T09:44:11;2.30;;;1.03;;
3417;SDS011;68007;51.312;12.372;2024-03-23T09:46:38;1.60;;;1.20;;
3417;SDS011;68007;51.312;12.372;2024-03-23T09:49:06;1.30;;;1.20;;
3417;SDS011;68007;51.312;12.372;2024-03-23T09:51:36;2.03;;;1.43;;
3417;SDS011;68007;51.312;12.372;2024-03-23T09:54:04;3.13;;;1.50;;
3417;SDS011;68007;51.312;12.372;2024-03-23T09:56:31;2.30;;;1.50;;
3417;SDS011;68007;51.312;12.372;2024-03-23T09:59:01;1.97;;;1.10;;
3417;SDS011;68007;51.312;12.372;2024-03-23T10:01:29;2.80;;;1.30;;
3417;SDS011;68007;51.312;12.372;2024-03-23T10:03:57;2.33;;;1.60;;
3417;SDS011;68007;51.312;12.372;2024-03-23T10:06:23;2.40;;;1.33;;
3417;SDS011;68007;51.312;12.372;2024-03-23T10:08:55;1.53;;;1.10;;
3417;SDS011;68007;51.312;12.372;2024-03-23T10:11:21;2.00;;;1.20;;
3417;SDS011;68007;51.312;12.372;2024-03-23T10:13:51;3.07;;;1.17;;
3417;SDS011;68007;51.312;12.372;2024-03-23T10:16:21;1.93;;;1.10;;
3417;SDS011;68007;51.312;12.372;2024-03-23T10:18:49;0.70;;;0.70;;
3417;SDS011;68007;51.312;12.372;2024-03-23T10:21:16;2.60;;;0.90;;
3417;SDS011;68007;51.312;12.372;2024-03-23T10:23:45;2.50;;;0.80;;
3417;SDS011;68007;51.312;12.372;2024-03-23T10:26:15;1.20;;;1.00;;
3417;SDS011;68007;51.312;12.372;2024-03-23T10:28:54;2.23;;;0.97;;
3417;SDS011;68007;51.312;12.372;2024-03-23T10:31:23;1.10;;;0.87;;
3417;SDS011;68007;51.312;12.372;2024-03-23T10:33:51;2.03;;;1.83;;
3417;SDS011;68007;51.312;12.372;2024-03-23T10:36:21;2.20;;;1.73;;
3417;SDS011;68007;51.312;12.372;2024-03-23T10:38:50;1.50;;;1.40;;
3417;SDS011;68007;51.312;12.372;2024-03-23T10:41:18;1.90;;;1.80;;
3417;SDS011;68007;51.312;12.372;2024-03-23T10:43:46;2.27;;;1.60;;
3417;SDS011;68007;51.312;12.372;2024-03-23T10:46:14;1.93;;;1.70;;
3417;SDS011;68007;51.312;12.372;2024-03-23T10:48:43;1.70;;;1.60;;
3417;SDS011;68007;51.312;12.372;2024-03-23T10:51:10;1.47;;;1.30;;
3417;SDS011;68007;51.312;12.372;2024-03-23T10:53:38;1.77;;;1.67;;
3417;SDS011;68007;51.312;12.372;2024-03-23T10:56:05;1.57;;;1.27;;
3417;SDS011;68007;51.312;12.372;2024-03-23T10:58:37;1.70;;;1.60;;
3417;SDS011;68007;51.312;12.372;2024-03-23T11:01:06;1.43;;;1.27;;
3417;SDS011;68007;51.312;12.372;2024-03-23T11:03:35;1.53;;;1.37;;
3417;SDS011;68007;51.312;12.372;2024-03-23T11:06:03;1.90;;;1.70;;
3417;SDS011;68007;51.312;12.372;2024-03-23T11:08:32;2.90;;;1.17;;
3417;SDS011;68007;51.312;12.372;2024-03-23T11:11:12;2.17;;;1.57;;
3417;SDS011;68007;51.312;12.372;2024-03-23T11:13:53;3.17;;;2.20;;
3417;SDS011;68007;51.312;12.372;2024-03-23T11:16:24;2.10;;;1.40;;
3417;SDS011;68007;51.312;12.372;2024-03-23T11:19:33;2.00;;;1.33;;
3417;SDS011;68007;51.312;12.372;2024-03-23T11:22:02;3.53;;;1.57;;
3417;SDS011;68007;51.312;12.372;2024-03-23T11:24:30;2.40;;;1.40;;
3417;SDS011;68007;51.312;12.372;2024-03-23T11:26:57;5.20;;;1.80;;
3417;SDS011;68007;51.312;12.372;2024-03-23T11:29:27;4.93;;;1.83;;
3417;SDS011;68007;51.312;12.372;2024-03-23T11:31:55;5.53;;;1.97;;
3417;SDS011;68007;51.312;12.372;2024-03-23T11:34:23;2.43;;;1.73;;
3417;SDS011;68007;51.312;12.372;2024-03-23T11:36:53;6.97;;;1.80;;
3417;SDS011;68007;51.312;12.372;2024-03-23T11:39:31;7.10;;;1.80;;
3417;SDS011;68007;51.312;12.372;2024-03-23T11:41:58;3.10;;;1.60;;
3417;SDS011;68007;51.312;12.372;2024-03-23T11:44:26;8.00;;;2.30;;
3417;SDS011;68007;51.312;12.372;2024-03-23T11:46:53;4.53;;;1.30;;
3417;SDS011;68007;51.312;12.372;2024-03-23T11:49:21;6.67;;;1.80;;
3417;SDS011;68007;51.312;12.372;2024-03-23T11:51:48;6.20;;;2.00;;
3417;SDS011;68007;51.312;12.372;2024-03-23T11:54:19;7.10;;;2.13;;
3417;SDS011;68007;51.312;12.372;2024-03-23T11:56:56;10.03;;;1.87;;
3417;SDS011;68007;51.312;12.372;2024-03-23T11:59:33;7.53;;;2.37;;
3417;SDS011;68007;51.312;12.372;2024-03-23T12:02:05;3.83;;;1.67;;
3417;SDS011;68007;51.312;12.372;2024-03-23T12:04:33;7.83;;;1.60;;
3417;SDS011;68007;51.312;12.372;2024-03-23T12:07:11;5.60;;;1.43;;
3417;SDS011;68007;51.312;12.372;2024-03-23T12:09:41;8.50;;;2.00;;
3417;SDS011;68007;51.312;12.372;2024-03-23T12:12:08;4.50;;;1.40;;
3417;SDS011;68007;51.312;12.372;2024-03-23T12:14:37;7.33;;;2.03;;
3417;SDS011;68007;51.312;12.372;2024-03-23T12:17:08;7.77;;;1.73;;
3417;SDS011;68007;51.312;12.372;2024-03-23T12:19:38;8.47;;;2.17;;
3417;SDS011;68007;51.312;12.372;2024-03-23T12:22:05;1.93;;;1.23;;
3417;SDS011;68007;51.312;12.372;2024-03-23T12:24:33;4.10;;;1.70;;
3417;SDS011;68007;51.312;12.372;2024-03-23T12:27:03;3.40;;;1.40;;
3417;SDS011;68007;51.312;12.372;2024-03-23T12:29:31;4.43;;;1.80;;
3417;SDS011;68007;51.312;12.372;2024-03-23T12:31:59;2.73;;;1.40;;
3417;SDS011;68007;51.312;12.372;2024-03-23T12:34:27;5.20;;;2.00;;
3417;SDS011;68007;51.312;12.372;2024-03-23T12:36:53;4.57;;;1.40;;
3417;SDS011;68007;51.312;12.372;2024-03-23T12:39:21;6.53;;;1.60;;
3417;SDS011;68007;51.312;12.372;2024-03-23T12:41:48;4.50;;;2.10;;
3417;SDS011;68007;51.312;12.372;2024-03-23T12:44:17;5.60;;;2.23;;
3417;SDS011;68007;51.312;12.372;2024-03-23T12:46:43;9.47;;;2.00;;
3417;SDS011;68007;51.312;12.372;2024-03-23T12:49:11;7.80;;;2.07;;
3417;SDS011;68007;51.312;12.372;2024-03-23T12:51:38;5.33;;;1.70;;
3417;SDS011;68007;51.312;12.372;2024-03-23T12:54:06;5.77;;;2.20;;
3417;SDS011;68007;51.312;12.372;2024-03-23T12:56:32;5.10;;;2.27;;
3417;SDS011;68007;51.312;12.372;2024-03-23T12:59:00;5.37;;;2.50;;
3417;SDS011;68007;51.312;12.372;2024-03-23T13:01:28;4.90;;;2.53;;
3417;SDS011;68007;51.312;12.372;2024-03-23T13:03:55;5.30;;;2.33;;
3417;SDS011;68007;51.312;12.372;2024-03-23T13:06:22;6.90;;;2.30;;
3417;SDS011;68007;51.312;12.372;2024-03-23T13:09:04;4.40;;;2.20;;
3417;SDS011;68007;51.312;12.372;2024-03-23T13:11:31;4.90;;;2.30;;
3417;SDS011;68007;51.312;12.372;2024-03-23T13:13:58;4.87;;;2.23;;
3417;SDS011;68007;51.312;12.372;2024-03-23T13:16:25;7.93;;;2.43;;
3417;SDS011;68007;51.312;12.372;2024-03-23T13:18:54;3.77;;;2.10;;
3417;SDS011;68007;51.312;12.372;2024-03-23T13:21:20;7.13;;;2.50;;
3417;SDS011;68007;51.312;12.372;2024-03-23T13:23:48;6.73;;;2.20;;
3417;SDS011;68007;51.312;12.372;2024-03-23T13:26:16;8.67;;;2.77;;
3417;SDS011;68007;51.312;12.372;2024-03-23T13:28:44;9.70;;;2.17;;
3417;SDS011;68007;51.312;12.372;2024-03-23T13:31:10;6.10;;;2.07;;
3417;SDS011;68007;51.312;12.372;2024-03-23T13:33:38;8.67;;;2.63;;
3417;SDS011;68007;51.312;12.372;2024-03-23T13:36:07;7.33;;;2.03;;
3417;SDS011;68007;51.312;12.372;2024-03-23T13:38:35;6.57;;;2.30;;
3417;SDS011;68007;51.312;12.372;2024-03-23T13:41:01;11.00;;;2.90;;
3417;SDS011;68007;51.312;12.372;2024-03-23T13:43:30;10.17;;;3.00;;
3417;SDS011;68007;51.312;12.372;2024-03-23T13:45:57;6.97;;;2.93;;
3417;SDS011;68007;51.312;12.372;2024-03-23T13:48:25;9.43;;;3.30;;
3417;SDS011;68007;51.312;12.372;2024-03-23T13:50:58;10.53;;;3.00;;
3417;SDS011;68007;51.312;12.372;2024-03-23T13:53:27;8.43;;;3.10;;
3417;SDS011;68007;51.312;12.372;2024-03-23T13:55:54;11.70;;;3.57;;
3417;SDS011;68007;51.312;12.372;2024-03-23T13:58:21;6.17;;;3.50;;
3417;SDS011;68007;51.312;12.372;2024-03-23T14:00:49;9.80;;;3.27;;
3417;SDS011;68007;51.312;12.372;2024-03-23T14:03:17;7.80;;;2.60;;
3417;SDS011;68007;51.312;12.372;2024-03-23T14:05:45;9.07;;;3.23;;
3417;SDS011;68007;51.312;12.372;2024-03-23T14:08:13;4.47;;;3.00;;
3417;SDS011;68007;51.312;12.372;2024-03-23T14:10:41;8.77;;;3.20;;
3417;SDS011;68007;51.312;12.372;2024-03-23T14:13:09;8.30;;;3.53;;
3417;SDS011;68007;51.312;12.372;2024-03-23T14:15:35;5.77;;;3.13;;
3417;SDS011;68007;51.312;12.372;2024-03-23T14:18:03;5.50;;;3.40;;
3417;SDS011;68007;51.312;12.372;2024-03-23T14:20:30;6.77;;;3.83;;
3417;SDS011;68007;51.312;12.372;2024-03-23T14:22:58;7.30;;;4.40;;
3417;SDS011;68007;51.312;12.372;2024-03-23T14:25:24;8.27;;;3.50;;
3417;SDS011;68007;51.312;12.372;2024-03-23T14:27:56;7.80;;;3.10;;
3417;SDS011;68007;51.312;12.372;2024-03-23T14:30:23;7.03;;;3.70;;
3417;SDS011;68007;51.312;12.372;2024-03-23T14:32:51;6.13;;;3.97;;
3417;SDS011;68007;51.312;12.372;2024-03-23T14:35:17;5.83;;;3.43;;
3417;SDS011;68007;51.312;12.372;2024-03-23T14:37:45;4.43;;;3.20;;
3417;SDS011;68007;51.312;12.372;2024-03-23T14:40:12;6.30;;;3.43;;
3417;SDS011;68007;51.312;12.372;2024-03-23T14:42:40;4.37;;;3.07;;
3417;SDS011;68007;51.312;12.372;2024-03-23T14:45:08;3.30;;;2.07;;
3417;SDS011;68007;51.312;12.372;2024-03-23T14:47:37;4.83;;;2.77;;
3417;SDS011;68007;51.312;12.372;2024-03-23T14:50:04;4.20;;;2.23;;
3417;SDS011;68007;51.312;12.372;2024-03-23T14:52:34;7.47;;;2.63;;
3417;SDS011;68007;51.312;12.372;2024-03-23T14:55:00;4.93;;;2.37;;
3417;SDS011;68007;51.312;12.372;2024-03-23T14:57:28;4.17;;;2.10;;
3417;SDS011;68007;51.312;12.372;2024-03-23T14:59:55;3.33;;;2.30;;
3417;SDS011;68007;51.312;12.372;2024-03-23T15:02:24;5.90;;;2.67;;
3417;SDS011;68007;51.312;12.372;2024-03-23T15:04:53;4.83;;;2.50;;
3417;SDS011;68007;51.312;12.372;2024-03-23T15:07:21;6.70;;;2.50;;
3417;SDS011;68007;51.312;12.372;2024-03-23T15:09:55;2.80;;;2.17;;
3417;SDS011;68007;51.312;12.372;2024-03-23T15:12:22;4.10;;;2.20;;
3417;SDS011;68007;51.312;12.372;2024-03-23T15:14:49;8.83;;;2.30;;
3417;SDS011;68007;51.312;12.372;2024-03-23T15:17:16;3.53;;;1.93;;
3417;SDS011;68007;51.312;12.372;2024-03-23T15:19:45;1.70;;;1.47;;
3417;SDS011;68007;51.312;12.372;2024-03-23T15:22:13;2.83;;;1.70;;
3417;SDS011;68007;51.312;12.372;2024-03-23T15:24:39;3.87;;;1.87;;
3417;SDS011;68007;51.312;12.372;2024-03-23T15:27:07;2.90;;;2.00;;
3417;SDS011;68007;51.312;12.372;2024-03-23T15:29:34;2.73;;;1.60;;
3417;SDS011;68007;51.312;12.372;2024-03-23T15:32:02;4.10;;;1.90;;
3417;SDS011;68007;51.312;12.372;2024-03-23T15:34:29;1.60;;;1.43;;
3417;SDS011;68007;51.312;12.372;2024-03-23T15:36:58;2.80;;;1.90;;
3417;SDS011;68007;51.312;12.372;2024-03-23T15:39:25;1.73;;;1.60;;
3417;SDS011;68007;51.312;12.372;2024-03-23T15:41:52;3.30;;;1.93;;